KCFV/CFV METAR and TAF weather

Enter ICAO airport designator
Station Type Date Time Source
KCFV METAR 2022/08/13 12:52 UTC NOAA

KCFV 131252Z AUTO 18004KT 10SM CLR 23/19 A3008 RMK AO2 SLP177 T02330189


Station Type Date Time Source
KCFV Decoded METAR 2022/08/13 12:52 UTC NOAA

COFFEYVILLE MUNICIPAL AIRPORT , KS, United States (KCFV) 37-05N 95-34W 225M
Aug 13, 2022 - 08:52 AM EDT / 2022.08.13 1252 UTC
Wind: from the S (180 degrees) at 5 MPH (4 KT):0
Visibility: 10 mile(s):0
Sky conditions: clear
Temperature: 73.9 F (23.3 C)
Dew Point: 66.0 F (18.9 C)
Relative Humidity: 76%
Pressure (altimeter): 30.08 in. Hg (1018 hPa)
ob: KCFV 131252Z AUTO 18004KT 10SM CLR 23/19 A3008 RMK AO2 SLP177 T02330189
cycle: 13

Station Type Date Time Source
KCFV TAF UTC NOAA

Error!

Example: see airport list